createdAt,value
2023-02-14T00:00:23.131Z,3.67
2023-02-14T00:03:13.698Z,3.72
2023-02-14T00:05:42.646Z,3.70
2023-02-14T00:08:11.777Z,3.50
2023-02-14T00:10:42.376Z,3.31
2023-02-14T00:13:11.661Z,3.13
2023-02-14T00:15:41.204Z,3.00
2023-02-14T00:18:10.599Z,2.97
2023-02-14T00:20:39.948Z,3.06
2023-02-14T00:23:09.322Z,3.06
2023-02-14T00:25:38.178Z,3.03
2023-02-14T00:28:07.087Z,3.01
2023-02-14T00:30:35.735Z,3.01
2023-02-14T00:33:04.621Z,3.05
2023-02-14T00:35:33.511Z,3.07
2023-02-14T00:38:02.816Z,3.13
2023-02-14T00:40:31.522Z,3.18
2023-02-14T00:43:00.373Z,3.16
2023-02-14T00:45:29.498Z,3.01
2023-02-14T00:47:58.719Z,2.83
2023-02-14T00:50:27.340Z,2.71
2023-02-14T00:52:56.433Z,2.68
2023-02-14T00:55:25.985Z,2.71
2023-02-14T00:57:54.813Z,2.78
2023-02-14T01:00:24.200Z,2.79
2023-02-14T01:02:53.216Z,2.77
2023-02-14T01:05:22.115Z,2.70
2023-02-14T01:07:51.187Z,2.69
2023-02-14T01:10:20.497Z,2.70
2023-02-14T01:12:49.560Z,2.75
2023-02-14T01:15:19.019Z,2.71
2023-02-14T01:17:48.006Z,2.68
2023-02-14T01:20:17.795Z,2.69
2023-02-14T01:22:46.822Z,2.66
2023-02-14T01:25:16.154Z,2.58
2023-02-14T01:27:45.223Z,2.48
2023-02-14T01:30:15.264Z,2.46
2023-02-14T01:32:44.973Z,2.42
2023-02-14T01:35:14.397Z,2.41
2023-02-14T01:37:43.605Z,2.36
2023-02-14T01:40:14.095Z,2.29
2023-02-14T01:42:43.009Z,2.27
2023-02-14T01:45:20.503Z,2.24
2023-02-14T01:47:54.296Z,2.20
2023-02-14T01:50:28.721Z,2.17
2023-02-14T01:53:06.258Z,2.14
2023-02-14T01:55:40.659Z,2.12
2023-02-14T01:58:15.516Z,2.13
2023-02-14T02:01:00.668Z,2.17
2023-02-14T02:03:35.089Z,2.18
2023-02-14T02:06:22.728Z,2.22
2023-02-14T02:09:16.345Z,2.10
2023-02-14T02:11:46.161Z,1.91
2023-02-14T02:14:21.658Z,1.85
2023-02-14T02:17:03.073Z,1.75
2023-02-14T02:19:53.968Z,1.74
2023-02-14T02:22:42.609Z,1.77
2023-02-14T02:25:34.502Z,1.77
2023-02-14T02:28:18.602Z,1.64
2023-02-14T02:31:24.880Z,1.57
2023-02-14T02:34:02.682Z,1.52
2023-02-14T02:36:32.434Z,1.64
2023-02-14T02:39:21.342Z,1.74
2023-02-14T02:42:13.122Z,1.79
2023-02-14T02:45:10.007Z,1.75
2023-02-14T02:48:05.510Z,1.63
2023-02-14T02:51:07.722Z,1.53
2023-02-14T02:53:36.532Z,1.44
2023-02-14T02:56:35.188Z,1.50
2023-02-14T02:59:07.025Z,1.38
2023-02-14T03:01:42.789Z,1.40
2023-02-14T03:04:32.024Z,1.41
2023-02-14T03:07:01.447Z,1.36
2023-02-14T03:09:30.580Z,1.41
2023-02-14T03:12:11.396Z,1.47
2023-02-14T03:14:49.224Z,1.46
2023-02-14T03:17:50.266Z,1.46
2023-02-14T03:20:32.211Z,1.37
2023-02-14T03:23:22.861Z,1.34
2023-02-14T03:26:31.152Z,1.39
2023-02-14T03:29:09.048Z,1.41
2023-02-14T03:31:43.742Z,1.44
2023-02-14T03:34:31.635Z,1.39
2023-02-14T03:37:14.923Z,1.40
2023-02-14T03:39:46.446Z,1.35
2023-02-14T03:42:32.186Z,1.34
2023-02-14T03:45:04.365Z,1.27
2023-02-14T03:47:37.434Z,1.29
2023-02-14T03:50:19.332Z,1.29
2023-02-14T03:52:52.775Z,1.25
2023-02-14T03:55:32.075Z,1.16
2023-02-14T03:58:13.171Z,0.99
2023-02-14T04:00:44.062Z,0.88
2023-02-14T04:03:15.815Z,0.82
2023-02-14T04:05:47.169Z,0.82
2023-02-14T04:08:23.404Z,0.78
2023-02-14T04:10:53.542Z,0.73
2023-02-14T04:13:22.320Z,0.70
2023-02-14T04:15:51.223Z,0.67
2023-02-14T04:18:38.860Z,0.70
2023-02-14T04:21:08.150Z,0.71
2023-02-14T04:23:37.124Z,0.73
2023-02-14T04:26:06.094Z,0.74
2023-02-14T04:28:35.453Z,0.68
2023-02-14T04:31:07.081Z,0.64
2023-02-14T04:33:36.017Z,0.67
2023-02-14T04:36:05.217Z,0.80
2023-02-14T04:38:34.090Z,0.88
2023-02-14T04:41:03.193Z,0.93
2023-02-14T04:43:31.927Z,0.98
2023-02-14T04:46:00.679Z,0.93
2023-02-14T04:48:29.440Z,0.85
2023-02-14T04:50:58.925Z,0.83
2023-02-14T04:53:28.214Z,0.80
2023-02-14T04:55:57.308Z,0.69
2023-02-14T04:58:26.118Z,0.51
2023-02-14T05:00:55.162Z,0.41
2023-02-14T05:03:24.289Z,0.38
2023-02-14T05:05:53.261Z,0.32
2023-02-14T05:08:22.353Z,0.34
2023-02-14T05:10:51.134Z,0.36
2023-02-14T05:13:20.019Z,0.35
2023-02-14T05:15:48.689Z,0.31
2023-02-14T05:18:17.720Z,0.25
2023-02-14T05:20:50.703Z,0.20
2023-02-14T05:23:20.176Z,0.17
2023-02-14T05:25:50.028Z,0.11
2023-02-14T05:28:20.327Z,0.06
2023-02-14T05:30:52.081Z,0.10
2023-02-14T05:33:21.392Z,0.12
2023-02-14T05:35:50.366Z,0.19
2023-02-14T05:38:19.795Z,0.27
2023-02-14T05:40:48.707Z,0.29
2023-02-14T05:43:17.535Z,0.12
2023-02-14T05:45:46.363Z,-0.10
2023-02-14T05:48:16.368Z,-0.27
2023-02-14T05:50:46.060Z,-0.36
2023-02-14T05:53:15.730Z,-0.35
2023-02-14T05:55:45.140Z,-0.34
2023-02-14T05:58:14.135Z,-0.30
2023-02-14T06:00:42.928Z,-0.26
2023-02-14T06:03:11.637Z,-0.23
2023-02-14T06:05:41.072Z,-0.17
2023-02-14T06:08:10.011Z,-0.11
2023-02-14T06:10:38.989Z,-0.07
2023-02-14T06:13:11.144Z,-0.09
2023-02-14T06:15:39.891Z,-0.17
2023-02-14T06:18:09.109Z,-0.20
2023-02-14T06:20:37.955Z,-0.22
2023-02-14T06:23:06.790Z,-0.13
2023-02-14T06:25:36.243Z,-0.03
2023-02-14T06:28:05.365Z,-0.04
2023-02-14T06:30:35.428Z,0.01
2023-02-14T06:33:04.716Z,0.08
2023-02-14T06:35:33.519Z,0.16
2023-02-14T06:38:02.391Z,0.19
2023-02-14T06:40:31.259Z,0.24
2023-02-14T06:43:00.041Z,0.34
2023-02-14T06:45:29.263Z,1.01
2023-02-14T06:47:58.084Z,2.28
2023-02-14T06:50:27.115Z,3.43
2023-02-14T06:52:56.036Z,4.42
2023-02-14T06:55:25.254Z,5.26
2023-02-14T06:57:53.946Z,5.91
2023-02-14T07:00:23.295Z,6.35
2023-02-14T07:02:52.867Z,6.89
2023-02-14T07:05:22.503Z,7.46
2023-02-14T07:07:52.310Z,8.07
2023-02-14T07:10:21.716Z,8.60
2023-02-14T07:12:50.623Z,9.16
2023-02-14T07:15:19.997Z,9.62
2023-02-14T07:17:48.628Z,10.16
2023-02-14T07:20:18.795Z,10.66
2023-02-14T07:22:47.787Z,11.18
2023-02-14T07:25:16.564Z,11.61
2023-02-14T07:27:45.974Z,12.10
2023-02-14T07:30:16.403Z,12.56
2023-02-14T07:32:45.986Z,13.06
2023-02-14T07:35:16.316Z,13.56
2023-02-14T07:37:46.283Z,14.06
2023-02-14T07:40:16.894Z,14.47
2023-02-14T07:42:54.765Z,14.91
2023-02-14T07:45:27.157Z,15.38
2023-02-14T07:47:59.691Z,15.83
2023-02-14T07:50:30.949Z,16.32
2023-02-14T07:53:01.090Z,16.62
2023-02-14T07:55:31.407Z,17.14
2023-02-14T07:58:00.767Z,17.55
2023-02-14T08:00:31.318Z,18.07
2023-02-14T08:03:01.189Z,18.40
2023-02-14T08:05:31.459Z,18.96
2023-02-14T08:08:00.903Z,19.64
2023-02-14T08:10:30.317Z,20.10
2023-02-14T08:13:00.512Z,20.00
2023-02-14T08:15:51.792Z,20.44
2023-02-14T08:18:27.607Z,20.73
2023-02-14T08:20:57.957Z,21.39
2023-02-14T08:23:28.147Z,21.79
2023-02-14T08:25:58.449Z,22.12
2023-02-14T08:28:28.734Z,22.67
2023-02-14T08:30:59.637Z,22.92
2023-02-14T08:33:29.004Z,23.29
2023-02-14T08:35:58.478Z,23.34
2023-02-14T08:38:27.215Z,23.68
2023-02-14T08:41:03.052Z,24.19
2023-02-14T08:43:34.445Z,24.51
2023-02-14T08:46:04.389Z,24.84
2023-02-14T08:48:38.801Z,24.83
2023-02-14T08:51:11.191Z,25.19
2023-02-14T08:53:42.994Z,25.59
2023-02-14T08:56:15.222Z,25.82
2023-02-14T08:58:44.863Z,26.08
2023-02-14T09:01:19.458Z,26.28
2023-02-14T09:03:51.591Z,26.56
2023-02-14T09:06:21.380Z,27.43
2023-02-14T09:08:54.123Z,27.93
2023-02-14T09:11:26.091Z,28.30
2023-02-14T09:13:56.868Z,28.60
2023-02-14T09:16:26.615Z,28.95
2023-02-14T09:18:57.216Z,29.31
2023-02-14T09:21:30.410Z,29.65
2023-02-14T09:23:59.712Z,29.58
2023-02-14T09:26:29.384Z,29.74
2023-02-14T09:28:59.201Z,29.77
2023-02-14T09:31:28.029Z,29.97
2023-02-14T09:33:57.759Z,30.22
2023-02-14T09:36:27.307Z,30.13
2023-02-14T09:38:56.740Z,30.66
2023-02-14T09:41:32.002Z,30.59
2023-02-14T09:44:13.321Z,30.76
2023-02-14T09:46:51.190Z,31.28
2023-02-14T09:49:33.757Z,31.62
2023-02-14T09:52:05.906Z,32.27
2023-02-14T09:54:38.187Z,32.75
2023-02-14T09:57:10.910Z,32.85
2023-02-14T09:59:52.616Z,32.98
2023-02-14T10:02:35.174Z,33.15
2023-02-14T10:05:16.130Z,33.47
2023-02-14T10:08:09.394Z,34.05
2023-02-14T10:10:43.917Z,34.32
2023-02-14T10:13:23.766Z,34.93
2023-02-14T10:16:02.755Z,35.16
2023-02-14T10:19:00.063Z,35.29
2023-02-14T10:21:38.561Z,35.42
2023-02-14T10:24:28.286Z,35.65
2023-02-14T10:29:46.994Z,35.70
2023-02-14T10:32:26.540Z,36.03
2023-02-14T10:35:01.661Z,36.30
2023-02-14T10:37:59.734Z,36.42
2023-02-14T10:41:12.989Z,36.30
2023-02-14T10:44:01.470Z,36.56
2023-02-14T10:47:24.370Z,36.96
2023-02-14T10:50:09.085Z,36.81
2023-02-14T10:52:40.684Z,36.71
2023-02-14T10:55:59.170Z,36.93
2023-02-14T10:58:32.547Z,36.85
2023-02-14T11:01:17.923Z,37.17
2023-02-14T11:04:04.290Z,37.06
2023-02-14T11:06:35.620Z,36.67
2023-02-14T11:09:05.282Z,36.27
2023-02-14T11:11:58.560Z,35.86
2023-02-14T11:14:32.818Z,35.70
2023-02-14T11:17:46.519Z,35.67
2023-02-14T11:20:26.905Z,35.33
2023-02-14T11:22:57.130Z,35.66
2023-02-14T11:25:32.960Z,35.42
2023-02-14T11:28:09.208Z,35.38
2023-02-14T11:30:46.264Z,35.90
2023-02-14T11:33:35.608Z,36.00
2023-02-14T11:36:10.913Z,36.20
2023-02-14T11:38:41.757Z,36.63
2023-02-14T11:41:16.474Z,37.19
2023-02-14T11:43:49.708Z,37.46
2023-02-14T11:46:21.801Z,37.79
2023-02-14T11:48:58.359Z,37.90
2023-02-14T11:51:34.312Z,37.64
2023-02-14T11:54:06.506Z,37.36
2023-02-14T11:56:54.948Z,37.43
2023-02-14T11:59:36.325Z,37.62
2023-02-14T12:02:14.927Z,37.57
2023-02-14T12:04:47.588Z,37.61
2023-02-14T12:07:28.529Z,37.51
2023-02-14T12:10:16.123Z,37.83
2023-02-14T12:12:57.010Z,37.64
2023-02-14T12:15:38.284Z,37.65
2023-02-14T12:18:40.341Z,37.88
2023-02-14T12:21:24.714Z,37.81
2023-02-14T12:24:15.092Z,37.87
2023-02-14T12:26:50.292Z,37.82
2023-02-14T12:29:28.825Z,38.23
2023-02-14T12:32:03.024Z,38.00
2023-02-14T12:34:32.641Z,37.78
2023-02-14T12:37:40.485Z,37.97
2023-02-14T12:40:29.506Z,38.11
2023-02-14T12:42:59.811Z,37.85
2023-02-14T12:45:55.289Z,38.30
2023-02-14T12:48:56.216Z,37.93
2023-02-14T12:51:51.278Z,37.63
2023-02-14T12:54:40.571Z,37.58
2023-02-14T12:57:22.495Z,37.32
2023-02-14T13:00:16.427Z,37.41
2023-02-14T13:03:10.132Z,37.48
2023-02-14T13:05:51.391Z,37.63
2023-02-14T13:09:02.098Z,37.69
2023-02-14T13:12:02.737Z,37.18
2023-02-14T13:15:08.604Z,36.73
2023-02-14T13:17:47.085Z,36.75
2023-02-14T13:20:28.907Z,36.98
2023-02-14T13:23:04.738Z,37.29
2023-02-14T13:25:41.524Z,37.18
2023-02-14T13:28:16.854Z,37.22
2023-02-14T13:30:46.201Z,37.09
2023-02-14T13:33:39.152Z,37.17
2023-02-14T13:36:12.858Z,37.02
2023-02-14T13:41:31.324Z,37.50
2023-02-14T13:44:03.234Z,37.82
2023-02-14T13:46:34.784Z,37.82
2023-02-14T13:49:24.981Z,37.60
2023-02-14T13:51:57.743Z,37.23
2023-02-14T13:54:36.328Z,37.12
2023-02-14T13:57:37.004Z,37.03
2023-02-14T14:00:19.442Z,36.53
2023-02-14T14:02:54.192Z,36.29
2023-02-14T14:05:38.541Z,36.25
2023-02-14T14:08:23.840Z,36.11
2023-02-14T14:10:55.864Z,36.02
2023-02-14T14:13:44.392Z,36.11
2023-02-14T14:16:29.279Z,35.68
2023-02-14T14:19:22.296Z,35.38
2023-02-14T14:22:10.364Z,35.12
2023-02-14T14:24:41.915Z,34.84
2023-02-14T14:27:20.452Z,34.75
2023-02-14T14:29:59.074Z,34.70
2023-02-14T14:32:37.676Z,34.29
2023-02-14T14:35:16.490Z,34.12
2023-02-14T14:37:57.776Z,33.76
2023-02-14T14:40:30.511Z,33.65
2023-02-14T14:43:14.881Z,33.37
2023-02-14T14:45:47.154Z,32.83
2023-02-14T14:48:41.621Z,32.70
2023-02-14T14:51:29.002Z,32.19
2023-02-14T14:54:05.316Z,31.81
2023-02-14T14:56:45.349Z,31.41
2023-02-14T14:59:17.642Z,31.42
2023-02-14T15:01:46.947Z,31.19
2023-02-14T15:04:35.868Z,31.28
2023-02-14T15:07:28.448Z,30.72
2023-02-14T15:09:58.273Z,30.70
2023-02-14T15:12:46.471Z,30.57
2023-02-14T15:15:19.477Z,30.34
2023-02-14T15:17:48.853Z,30.14
2023-02-14T15:20:24.363Z,30.05
2023-02-14T15:22:54.796Z,29.78
2023-02-14T15:25:29.673Z,29.70
2023-02-14T15:28:01.897Z,29.40
2023-02-14T15:30:35.208Z,29.21
2023-02-14T15:33:09.505Z,29.03
2023-02-14T15:35:42.976Z,28.97
2023-02-14T15:38:14.632Z,28.72
2023-02-14T15:40:45.461Z,28.35
2023-02-14T15:43:32.698Z,27.89
2023-02-14T15:46:43.646Z,27.42
2023-02-14T15:49:21.470Z,26.83
2023-02-14T15:51:52.371Z,26.69
2023-02-14T15:54:32.647Z,26.56
2023-02-14T15:57:06.566Z,26.22
2023-02-14T15:59:43.815Z,25.99
2023-02-14T16:02:39.026Z,25.53
2023-02-14T16:05:19.261Z,25.13
2023-02-14T16:08:08.423Z,24.84
2023-02-14T16:10:40.236Z,24.27
2023-02-14T16:13:15.828Z,23.89
2023-02-14T16:16:05.390Z,23.48
2023-02-14T16:18:39.824Z,23.08
2023-02-14T16:21:33.227Z,22.83
2023-02-14T16:24:11.244Z,22.16
2023-02-14T16:26:43.555Z,21.55
2023-02-14T16:29:16.639Z,21.01
2023-02-14T16:34:40.836Z,19.94
2023-02-14T16:37:39.394Z,19.65
2023-02-14T16:40:14.280Z,19.17
2023-02-14T16:42:44.445Z,18.94
2023-02-14T16:45:19.419Z,18.66
2023-02-14T16:47:49.418Z,18.37
2023-02-14T16:50:21.640Z,18.13
2023-02-14T16:52:52.875Z,17.87
2023-02-14T16:55:22.388Z,17.64
2023-02-14T16:57:53.378Z,17.46
2023-02-14T17:00:24.460Z,17.26
2023-02-14T17:03:05.207Z,17.12
2023-02-14T17:05:37.250Z,16.92
2023-02-14T17:08:11.621Z,16.81
2023-02-14T17:10:44.261Z,16.65
2023-02-14T17:13:16.762Z,16.55
2023-02-14T17:15:46.938Z,16.45
2023-02-14T17:18:18.964Z,16.33
2023-02-14T17:20:50.360Z,16.12
2023-02-14T17:23:21.768Z,15.92
2023-02-14T17:25:52.252Z,15.75
2023-02-14T17:28:22.671Z,15.55
2023-02-14T17:30:52.926Z,15.45
2023-02-14T17:33:23.290Z,15.37
2023-02-14T17:35:53.178Z,15.23
2023-02-14T17:38:22.755Z,15.04
2023-02-14T17:40:52.414Z,14.83
2023-02-14T17:43:21.862Z,14.63
2023-02-14T17:45:51.494Z,14.47
2023-02-14T17:48:21.691Z,14.32
2023-02-14T17:50:51.343Z,14.21
2023-02-14T17:53:21.707Z,14.12
2023-02-14T17:55:52.762Z,14.00
2023-02-14T17:58:23.133Z,13.95
2023-02-14T18:00:55.917Z,13.87
2023-02-14T18:03:26.086Z,13.84
2023-02-14T18:05:59.430Z,13.74
2023-02-14T18:08:35.486Z,13.63
2023-02-14T18:11:07.126Z,13.48
2023-02-14T18:13:38.043Z,13.39
2023-02-14T18:16:14.017Z,13.30
2023-02-14T18:18:47.244Z,13.22
2023-02-14T18:21:21.851Z,13.13
2023-02-14T18:23:51.152Z,13.04
2023-02-14T18:26:21.068Z,12.97
2023-02-14T18:28:51.746Z,12.86
2023-02-14T18:31:21.343Z,12.76
2023-02-14T18:33:51.640Z,12.70
2023-02-14T18:36:24.798Z,12.59
2023-02-14T18:38:55.685Z,12.35
2023-02-14T18:41:26.780Z,12.17
2023-02-14T18:43:55.939Z,12.00
2023-02-14T18:46:28.118Z,11.79
2023-02-14T18:48:58.930Z,11.53
2023-02-14T18:51:34.692Z,11.31
2023-02-14T18:54:05.304Z,11.15
2023-02-14T18:56:38.179Z,10.98
2023-02-14T18:59:09.922Z,10.80
2023-02-14T19:01:43.152Z,10.65
2023-02-14T19:04:13.706Z,10.55
2023-02-14T19:06:44.231Z,10.48
2023-02-14T19:09:17.927Z,10.40
2023-02-14T19:11:47.272Z,10.34
2023-02-14T19:14:20.187Z,10.33
2023-02-14T19:16:53.262Z,10.28
2023-02-14T19:19:23.673Z,10.17
2023-02-14T19:21:54.316Z,10.08
2023-02-14T19:24:26.065Z,10.08
2023-02-14T19:26:56.615Z,10.02
2023-02-14T19:29:25.673Z,9.95
2023-02-14T19:31:56.010Z,9.88
2023-02-14T19:34:30.073Z,9.77
2023-02-14T19:37:00.985Z,9.66
2023-02-14T19:39:31.474Z,9.60
2023-02-14T19:42:01.535Z,9.53
2023-02-14T19:44:31.458Z,9.38
2023-02-14T19:47:09.820Z,9.31
2023-02-14T19:49:46.305Z,9.24
2023-02-14T19:52:25.728Z,9.19
2023-02-14T19:54:58.440Z,9.02
2023-02-14T19:57:28.262Z,8.93
2023-02-14T19:59:57.437Z,8.86
2023-02-14T20:02:26.644Z,8.81
2023-02-14T20:04:59.500Z,8.85
2023-02-14T20:07:28.575Z,8.89
2023-02-14T20:09:57.827Z,8.70
2023-02-14T20:12:27.373Z,8.46
2023-02-14T20:14:57.813Z,8.38
2023-02-14T20:17:28.536Z,8.31
2023-02-14T20:19:57.969Z,8.27
2023-02-14T20:22:28.972Z,8.26
2023-02-14T20:24:59.026Z,8.22
2023-02-14T20:27:29.612Z,8.18
2023-02-14T20:29:59.373Z,8.15
2023-02-14T20:32:29.755Z,8.08
2023-02-14T20:35:00.102Z,7.91
2023-02-14T20:37:30.723Z,7.73
2023-02-14T20:40:01.268Z,7.64
2023-02-14T20:42:31.988Z,7.57
2023-02-14T20:45:02.625Z,7.49
2023-02-14T20:47:32.180Z,7.51
2023-02-14T20:50:01.449Z,7.44
2023-02-14T20:52:30.809Z,7.44
2023-02-14T20:55:01.203Z,7.51
2023-02-14T20:57:30.797Z,7.61
2023-02-14T20:59:59.707Z,7.67
2023-02-14T21:02:28.635Z,7.69
2023-02-14T21:05:00.600Z,7.61
2023-02-14T21:07:31.490Z,7.39
2023-02-14T21:10:01.012Z,7.17
2023-02-14T21:12:30.655Z,7.06
2023-02-14T21:14:59.209Z,6.98
2023-02-14T21:17:28.749Z,6.87
2023-02-14T21:19:58.187Z,6.81
2023-02-14T21:22:27.809Z,6.71
2023-02-14T21:24:57.595Z,6.66
2023-02-14T21:27:27.442Z,6.64
2023-02-14T21:29:57.771Z,6.62
2023-02-14T21:32:28.941Z,6.62
2023-02-14T21:34:58.615Z,6.63
2023-02-14T21:37:27.999Z,6.58
2023-02-14T21:39:59.634Z,6.49
2023-02-14T21:42:30.279Z,6.41
2023-02-14T21:45:19.546Z,6.39
2023-02-14T21:48:09.176Z,6.34
2023-02-14T21:50:39.622Z,6.28
2023-02-14T21:53:09.928Z,6.30
2023-02-14T21:55:39.562Z,6.26
2023-02-14T21:58:08.637Z,6.17
2023-02-14T22:00:38.073Z,6.08
2023-02-14T22:03:07.767Z,5.98
2023-02-14T22:05:37.475Z,5.92
2023-02-14T22:08:07.735Z,5.91
2023-02-14T22:10:40.970Z,5.93
2023-02-14T22:13:10.706Z,5.95
2023-02-14T22:15:43.008Z,6.02
2023-02-14T22:18:14.416Z,6.02
2023-02-14T22:20:45.365Z,5.97
2023-02-14T22:23:14.572Z,5.96
2023-02-14T22:25:43.612Z,6.00
2023-02-14T22:28:13.574Z,5.94
2023-02-14T22:30:43.041Z,5.91
2023-02-14T22:33:12.629Z,5.93
2023-02-14T22:35:43.020Z,5.91
2023-02-14T22:38:12.917Z,5.90
2023-02-14T22:40:44.225Z,5.84
2023-02-14T22:43:14.449Z,5.84
2023-02-14T22:45:45.754Z,5.82
2023-02-14T22:48:15.691Z,5.67
2023-02-14T22:50:45.332Z,5.57
2023-02-14T22:53:15.275Z,5.55
2023-02-14T22:55:44.338Z,5.59
2023-02-14T22:58:13.516Z,5.59
2023-02-14T23:00:45.255Z,5.51
2023-02-14T23:03:15.625Z,5.54
2023-02-14T23:05:46.155Z,5.55
2023-02-14T23:08:16.120Z,5.50
2023-02-14T23:10:45.680Z,5.42
2023-02-14T23:13:34.046Z,5.29
2023-02-14T23:16:21.879Z,5.14
2023-02-14T23:19:11.981Z,5.08
2023-02-14T23:21:56.326Z,5.02
2023-02-14T23:24:25.851Z,4.99
2023-02-14T23:26:56.131Z,4.99
2023-02-14T23:29:24.993Z,5.00
2023-02-14T23:31:54.245Z,4.97
2023-02-14T23:34:29.182Z,4.89
2023-02-14T23:36:59.775Z,4.85
2023-02-14T23:39:29.343Z,4.81
2023-02-14T23:41:57.995Z,4.66
2023-02-14T23:44:28.866Z,4.51
2023-02-14T23:47:01.129Z,4.51
2023-02-14T23:49:31.502Z,4.48
2023-02-14T23:52:00.781Z,4.58
2023-02-14T23:54:29.529Z,4.66
2023-02-14T23:56:58.575Z,4.70
2023-02-14T23:59:27.639Z,4.66
